Time;durP1;ratioP1;P1;durP2;ratioP2;P2;SDS_P1;SDS_P2;PMS_P1;PMS_P2;Temp;Humidity;BMP_temperature;BMP_pressure;BME280_temperature;BME280_humidity;BME280_pressure;Samples;Min_cycle;Max_cycle;Signal;HPM_P1;HPM_P2
2024/01/08 00:00:55;;;;;;;35.40;16.20;;;;;;;-147.86;100.00;-17609.17;109163;1256;63877;-44
2024/01/08 00:06:18;;;;;;;34.90;16.40;;;;;;;-147.86;100.00;-17609.17;103469;1286;601792;-45
2024/01/08 00:08:45;;;;;;;33.60;15.30;;;;;;;-147.86;100.00;-17609.17;105063;1265;60361;-45
2024/01/08 00:11:13;;;;;;;38.10;16.30;;;;;;;-147.86;100.00;-17609.17;105084;1263;60044;-44
2024/01/08 00:13:41;;;;;;;42.10;15.30;;;;;;;-147.86;100.00;-17609.17;105100;1264;70951;-44
2024/01/08 00:16:09;;;;;;;38.50;16.10;;;;;;;-147.86;100.00;-17609.17;105046;1269;63991;-45
2024/01/08 00:18:38;;;;;;;33.90;16.10;;;;;;;-147.86;100.00;-17609.17;105153;1267;71350;-45
2024/01/08 00:21:05;;;;;;;25.00;12.50;;;;;;;-147.86;100.00;-17609.17;105055;1264;200214;-46
2024/01/08 00:23:34;;;;;;;33.00;15.70;;;;;;;-147.86;100.00;-17609.17;105225;1266;59179;-43
2024/01/08 00:26:02;;;;;;;36.50;16.10;;;;;;;-147.86;100.00;-17609.17;105282;1261;70978;-45
2024/01/08 00:28:29;;;;;;;40.80;16.90;;;;;;;-147.86;100.00;-17609.17;105220;1261;63902;-45
2024/01/08 00:30:57;;;;;;;31.60;15.00;;;;;;;-147.86;100.00;-17609.17;105588;1257;71358;-45
2024/01/08 00:33:25;;;;;;;40.10;16.20;;;;;;;-147.86;100.00;-17609.17;105672;1260;60369;-45
2024/01/08 00:35:53;;;;;;;38.80;15.40;;;;;;;-147.86;100.00;-17609.17;105625;1260;59693;-47
2024/01/08 00:38:21;;;;;;;37.50;14.50;;;;;;;-147.86;100.00;-17609.17;105744;1255;71825;-45
2024/01/08 00:40:48;;;;;;;36.00;15.40;;;;;;;-147.86;100.00;-17609.17;105575;1255;66734;-45
2024/01/08 00:43:16;;;;;;;44.70;16.70;;;;;;;-147.86;100.00;-17609.17;105661;1254;72598;-45
2024/01/08 00:45:44;;;;;;;37.60;16.40;;;;;;;-147.86;100.00;-17609.17;105655;1260;59755;-45
2024/01/08 00:48:12;;;;;;;30.50;15.40;;;;;;;-147.86;100.00;-17609.17;105657;1260;59990;-45
2024/01/08 00:50:40;;;;;;;39.90;16.50;;;;;;;-147.86;100.00;-17609.17;105645;1260;73009;-45
2024/01/08 00:53:09;;;;;;;39.90;16.80;;;;;;;-147.86;100.00;-17609.17;105725;1257;65280;-44
2024/01/08 00:55:36;;;;;;;34.70;15.40;;;;;;;-147.86;100.00;-17609.17;105646;1254;72638;-44
2024/01/08 00:58:04;;;;;;;36.50;16.00;;;;;;;-147.86;100.00;-17609.17;105641;1257;59767;-45
2024/01/08 01:00:32;;;;;;;43.50;16.90;;;;;;;-147.86;100.00;-17609.17;105661;1257;59612;-45
2024/01/08 01:03:00;;;;;;;35.00;15.20;;;;;;;-147.86;100.00;-17609.17;105586;1256;70807;-45
2024/01/08 01:05:28;;;;;;;40.20;16.50;;;;;;;-147.86;100.00;-17609.17;105577;1256;63916;-43
2024/01/08 01:07:56;;;;;;;32.20;13.30;;;;;;;-147.86;100.00;-17609.17;105569;1260;71370;-45
2024/01/08 01:10:23;;;;;;;38.30;15.80;;;;;;;-147.86;100.00;-17609.17;105554;1260;59815;-44
2024/01/08 01:12:51;;;;;;;33.70;15.00;;;;;;;-147.86;100.00;-17609.17;105644;1260;59606;-44
2024/01/08 01:15:19;;;;;;;41.50;19.10;;;;;;;-147.86;100.00;-17609.17;105575;1256;71791;-45
2024/01/08 01:17:47;;;;;;;46.30;17.40;;;;;;;-147.86;100.00;-17609.17;105575;1258;63998;-44
2024/01/08 01:20:15;;;;;;;38.20;16.70;;;;;;;-147.86;100.00;-17609.17;105576;1257;71338;-44
2024/01/08 01:22:43;;;;;;;36.10;15.90;;;;;;;-147.86;100.00;-17609.17;105603;1258;59858;-44
2024/01/08 01:25:11;;;;;;;35.60;16.00;;;;;;;-147.86;100.00;-17609.17;105627;1261;59702;-44
2024/01/08 01:27:39;;;;;;;36.80;15.60;;;;;;;-147.86;100.00;-17609.17;105547;1258;72082;-44
2024/01/08 01:30:08;;;;;;;38.30;16.70;;;;;;;-147.86;100.00;-17609.17;105583;1257;64435;-44
2024/01/08 01:32:36;;;;;;;37.80;17.00;;;;;;;-147.86;100.00;-17609.17;105613;1256;72641;-45
2024/01/08 01:35:06;;;;;;;31.80;13.80;;;;;;;-147.86;100.00;-17609.17;105574;1259;60376;-44
2024/01/08 01:37:33;;;;;;;36.70;18.20;;;;;;;-147.86;100.00;-17609.17;105579;1260;59619;-45
2024/01/08 01:40:01;;;;;;;44.00;19.00;;;;;;;-147.86;100.00;-17609.17;105613;1258;71829;-44
2024/01/08 01:42:30;;;;;;;42.20;18.90;;;;;;;-147.86;100.00;-17609.17;105632;1257;63269;-44
2024/01/08 01:44:58;;;;;;;32.00;13.60;;;;;;;-147.86;100.00;-17609.17;105613;1257;70864;-44
2024/01/08 01:47:26;;;;;;;42.50;17.20;;;;;;;-147.86;100.00;-17609.17;105581;1257;60799;-46
2024/01/08 01:49:54;;;;;;;50.70;19.60;;;;;;;-147.86;100.00;-17609.17;105666;1257;59546;-44
2024/01/08 01:52:23;;;;;;;39.90;17.00;;;;;;;-147.86;100.00;-17609.17;105590;1258;71701;-44
2024/01/08 01:54:51;;;;;;;39.50;16.60;;;;;;;-147.86;100.00;-17609.17;105682;1257;64042;-47
2024/01/08 01:57:18;;;;;;;42.30;17.40;;;;;;;-147.86;100.00;-17609.17;105532;1257;70788;-44
2024/01/08 01:59:46;;;;;;;37.40;16.50;;;;;;;-147.86;100.00;-17609.17;105615;1259;60420;-43
2024/01/08 02:02:14;;;;;;;43.40;17.50;;;;;;;-147.86;100.00;-17609.17;105576;1261;59551;-44
2024/01/08 02:04:43;;;;;;;41.10;17.40;;;;;;;-147.86;100.00;-17609.17;105609;1260;71798;-45
2024/01/08 02:07:11;;;;;;;38.60;17.00;;;;;;;-147.86;100.00;-17609.17;105528;1257;64013;-43
2024/01/08 02:09:39;;;;;;;36.90;14.20;;;;;;;-147.86;100.00;-17609.17;105605;1257;71449;-44
2024/01/08 02:12:07;;;;;;;38.90;15.70;;;;;;;-147.86;100.00;-17609.17;105600;1257;59644;-44
2024/01/08 02:14:35;;;;;;;47.00;18.00;;;;;;;-147.86;100.00;-17609.17;105647;1260;59734;-44
2024/01/08 02:17:03;;;;;;;42.40;17.50;;;;;;;-147.86;100.00;-17609.17;105577;1257;71784;-41
2024/01/08 02:19:31;;;;;;;37.90;16.60;;;;;;;-147.86;100.00;-17609.17;105485;1260;65103;-44
2024/01/08 02:21:59;;;;;;;39.90;17.40;;;;;;;-147.86;100.00;-17609.17;109313;1257;71551;-42
2024/01/08 02:24:28;;;;;;;39.10;17.10;;;;;;;-147.86;100.00;-17609.17;109194;1256;61754;-42
2024/01/08 02:26:59;;;;;;;26.50;11.60;;;;;;;-147.86;100.00;-17609.17;109283;1256;60018;-42
2024/01/08 02:29:26;;;;;;;38.90;16.30;;;;;;;-147.86;100.00;-17609.17;109171;1256;73155;-42
2024/01/08 02:31:54;;;;;;;36.40;16.30;;;;;;;-147.86;100.00;-17609.17;109201;1257;63887;-42
2024/01/08 02:34:22;;;;;;;36.20;15.60;;;;;;;-147.86;100.00;-17609.17;109306;1256;72506;-42
2024/01/08 02:36:50;;;;;;;37.40;14.00;;;;;;;-147.86;100.00;-17609.17;109116;1256;60781;-42
2024/01/08 02:39:18;;;;;;;36.80;15.90;;;;;;;-147.86;100.00;-17609.17;109246;1255;60105;-43
2024/01/08 02:41:46;;;;;;;34.30;14.30;;;;;;;-147.86;100.00;-17609.17;109252;1256;71811;-42
2024/01/08 02:44:13;;;;;;;39.00;15.90;;;;;;;-147.86;100.00;-17609.17;109332;1257;65247;-42
2024/01/08 02:46:41;;;;;;;32.00;12.20;;;;;;;-147.86;100.00;-17609.17;109330;1256;72611;-42
2024/01/08 02:49:09;;;;;;;36.10;13.80;;;;;;;-147.86;100.00;-17609.17;109277;1256;60862;-42
2024/01/08 02:51:36;;;;;;;40.90;12.10;;;;;;;-147.86;100.00;-17609.17;109299;1255;60257;-42
2024/01/08 02:54:04;;;;;;;38.90;14.70;;;;;;;-147.86;100.00;-17609.17;109230;1256;71728;-43
2024/01/08 02:56:31;;;;;;;38.00;13.10;;;;;;;-147.86;100.00;-17609.17;109290;1256;65208;-42
2024/01/08 02:59:05;;;;;;;33.10;14.10;;;;;;;-147.86;100.00;-17609.17;109212;1256;72649;-42
2024/01/08 03:04:58;;;;;;;28.60;12.60;;;;;;;-147.86;100.00;-17609.17;102711;1290;600592;-43
2024/01/08 03:07:27;;;;;;;38.20;16.00;;;;;;;-147.86;100.00;-17609.17;104823;1266;59334;-44
2024/01/08 03:09:56;;;;;;;38.70;16.60;;;;;;;-147.86;100.00;-17609.17;104932;1266;59347;-43
2024/01/08 03:12:25;;;;;;;28.40;13.40;;;;;;;-147.86;100.00;-17609.17;104879;1266;70726;-44
2024/01/08 03:14:53;;;;;;;42.50;16.10;;;;;;;-147.86;100.00;-17609.17;104871;1270;64221;-43
2024/01/08 03:17:21;;;;;;;35.30;15.10;;;;;;;-147.86;100.00;-17609.17;104843;1265;72648;-44
2024/01/08 03:19:49;;;;;;;37.40;15.60;;;;;;;-147.86;100.00;-17609.17;105040;1267;196904;-44
2024/01/08 03:22:17;;;;;;;31.50;13.60;;;;;;;-147.86;100.00;-17609.17;105141;1267;59270;-44
2024/01/08 03:24:45;;;;;;;30.40;12.10;;;;;;;-147.86;100.00;-17609.17;105177;1267;72197;-44
2024/01/08 03:27:13;;;;;;;35.10;14.40;;;;;;;-147.86;100.00;-17609.17;105159;1263;63943;-43
2024/01/08 03:29:41;;;;;;;34.70;12.60;;;;;;;-147.86;100.00;-17609.17;105206;1263;72643;-43
2024/01/08 03:32:09;;;;;;;33.80;12.80;;;;;;;-147.86;100.00;-17609.17;105141;1263;60389;-44
2024/01/08 03:34:37;;;;;;;35.10;14.60;;;;;;;-147.86;100.00;-17609.17;105202;1266;59567;-44
2024/01/08 03:37:05;;;;;;;37.90;14.80;;;;;;;-147.86;100.00;-17609.17;105210;1260;71814;-43
2024/01/08 03:39:32;;;;;;;36.30;14.30;;;;;;;-147.86;100.00;-17609.17;105191;1260;64012;-43
2024/01/08 03:42:00;;;;;;;27.90;11.70;;;;;;;-147.86;100.00;-17609.17;105212;1264;72652;-44
2024/01/08 03:44:29;;;;;;;34.80;13.90;;;;;;;-147.86;100.00;-17609.17;105186;1260;61592;-45
2024/01/08 03:46:57;;;;;;;37.00;15.10;;;;;;;-147.86;100.00;-17609.17;105231;1265;59556;-44
2024/01/08 03:49:26;;;;;;;27.90;12.20;;;;;;;-147.86;100.00;-17609.17;105283;1264;72967;-43
2024/01/08 03:51:54;;;;;;;28.60;13.70;;;;;;;-147.86;100.00;-17609.17;105248;1261;63894;-43
2024/01/08 03:54:22;;;;;;;26.40;11.80;;;;;;;-147.86;100.00;-17609.17;105221;1263;71267;-43
2024/01/08 04:04:59;;;;;;;31.20;13.50;;;;;;;-147.86;100.00;-17609.17;102726;1293;600442;-44
2024/01/08 04:07:27;;;;;;;31.80;13.10;;;;;;;-147.86;100.00;-17609.17;105089;1265;60074;-43
2024/01/08 04:09:55;;;;;;;24.60;11.90;;;;;;;-147.86;100.00;-17609.17;104878;1266;59321;-44
2024/01/08 04:12:22;;;;;;;32.20;14.20;;;;;;;-147.86;100.00;-17609.17;104823;1266;70841;-44
2024/01/08 04:14:50;;;;;;;31.00;11.90;;;;;;;-147.86;100.00;-17609.17;104821;1270;65112;-43
2024/01/08 04:17:18;;;;;;;30.10;15.10;;;;;;;-147.86;100.00;-17609.17;104828;1266;72608;-44
2024/01/08 04:19:46;;;;;;;32.80;13.70;;;;;;;-147.86;100.00;-17609.17;104918;1267;316421;-45
2024/01/08 04:22:15;;;;;;;32.10;13.20;;;;;;;-147.86;100.00;-17609.17;105176;1268;59314;-43
2024/01/08 04:24:43;;;;;;;40.50;10.80;;;;;;;-147.86;100.00;-17609.17;105204;1261;70796;-43
2024/01/08 04:27:11;;;;;;;38.40;12.90;;;;;;;-147.86;100.00;-17609.17;105224;1268;64011;-44
2024/01/08 04:29:39;;;;;;;29.70;13.00;;;;;;;-147.86;100.00;-17609.17;105140;1263;72622;-43
2024/01/08 04:32:06;;;;;;;42.40;14.50;;;;;;;-147.86;100.00;-17609.17;105253;1268;60465;-43
2024/01/08 04:34:34;;;;;;;25.50;11.10;;;;;;;-147.86;100.00;-17609.17;108841;1266;58753;-43
2024/01/08 04:37:02;;;;;;;29.10;12.40;;;;;;;-147.86;100.00;-17609.17;108860;1261;71464;-42
2024/01/08 04:39:30;;;;;;;26.70;12.20;;;;;;;-147.86;100.00;-17609.17;108843;1261;65143;-43
2024/01/08 04:41:58;;;;;;;22.90;10.20;;;;;;;-147.86;100.00;-17609.17;109026;1258;71574;-42
2024/01/08 04:44:26;;;;;;;30.40;11.70;;;;;;;-147.86;100.00;-17609.17;109008;1258;60869;-43
2024/01/08 04:46:53;;;;;;;26.30;11.80;;;;;;;-147.86;100.00;-17609.17;108998;1263;58771;-43
2024/01/08 04:49:22;;;;;;;27.50;9.80;;;;;;;-147.86;100.00;-17609.17;109027;1259;73010;-43
2024/01/08 04:51:50;;;;;;;22.30;10.70;;;;;;;-147.86;100.00;-17609.17;109003;1259;65474;-43
2024/01/08 04:54:18;;;;;;;24.60;9.40;;;;;;;-147.86;100.00;-17609.17;109008;1258;72667;-43
2024/01/08 04:56:48;;;;;;;23.30;9.30;;;;;;;-147.86;100.00;-17609.17;109023;1259;61677;-43
2024/01/08 04:59:15;;;;;;;27.90;10.40;;;;;;;-147.86;100.00;-17609.17;109008;1258;60072;-43
2024/01/08 05:05:08;;;;;;;30.80;10.80;;;;;;;-147.86;100.00;-17609.17;102745;1292;600855;-44
2024/01/08 05:07:37;;;;;;;30.90;11.80;;;;;;;-147.86;100.00;-17609.17;104830;1269;59241;-44
2024/01/08 05:10:05;;;;;;;32.30;11.70;;;;;;;-147.86;100.00;-17609.17;104859;1272;59317;-43
2024/01/08 05:12:33;;;;;;;26.80;11.70;;;;;;;-147.86;100.00;-17609.17;104876;1267;72273;-43
2024/01/08 05:15:02;;;;;;;27.60;10.90;;;;;;;-147.86;100.00;-17609.17;104864;1266;63339;-44
2024/01/08 05:17:30;;;;;;;19.20;9.30;;;;;;;-147.86;100.00;-17609.17;104894;1269;70965;-45
2024/01/08 05:19:58;;;;;;;25.70;11.30;;;;;;;-147.86;100.00;-17609.17;105079;1264;218432;-44
2024/01/08 05:22:26;;;;;;;21.20;10.00;;;;;;;-147.86;100.00;-17609.17;105188;1268;59321;-45
2024/01/08 05:24:54;;;;;;;27.50;10.30;;;;;;;-147.86;100.00;-17609.17;105213;1265;71030;-44
2024/01/08 05:27:22;;;;;;;33.60;10.90;;;;;;;-147.86;100.00;-17609.17;105234;1269;64065;-44
2024/01/08 05:29:49;;;;;;;29.70;12.70;;;;;;;-147.86;100.00;-17609.17;105208;1267;71965;-44
2024/01/08 05:32:18;;;;;;;31.30;11.60;;;;;;;-147.86;100.00;-17609.17;105172;1269;60424;-44
2024/01/08 05:34:45;;;;;;;26.00;11.00;;;;;;;-147.86;100.00;-17609.17;105212;1264;59977;-45
2024/01/08 05:37:13;;;;;;;24.10;10.00;;;;;;;-147.86;100.00;-17609.17;105149;1263;71219;-44
2024/01/08 05:39:41;;;;;;;30.70;11.20;;;;;;;-147.86;100.00;-17609.17;105133;1268;64310;-43
2024/01/08 05:42:10;;;;;;;30.50;10.10;;;;;;;-147.86;100.00;-17609.17;105209;1268;71964;-44
2024/01/08 05:44:38;;;;;;;25.90;8.60;;;;;;;-147.86;100.00;-17609.17;105556;1260;60443;-44
2024/01/08 05:47:07;;;;;;;17.10;8.00;;;;;;;-147.86;100.00;-17609.17;105611;1260;59693;-43
2024/01/08 05:49:36;;;;;;;22.50;9.10;;;;;;;-147.86;100.00;-17609.17;105577;1256;71784;-45
2024/01/08 05:52:04;;;;;;;21.00;8.80;;;;;;;-147.86;100.00;-17609.17;105622;1262;63890;-45
2024/01/08 05:54:32;;;;;;;20.00;9.20;;;;;;;-147.86;100.00;-17609.17;105585;1256;72656;-45
2024/01/08 05:57:00;;;;;;;22.90;10.00;;;;;;;-147.86;100.00;-17609.17;105590;1258;60048;-44
2024/01/08 05:59:28;;;;;;;28.50;9.60;;;;;;;-147.86;100.00;-17609.17;105644;1260;59731;-43
2024/01/08 06:01:56;;;;;;;28.30;10.00;;;;;;;-147.86;100.00;-17609.17;105577;1260;73067;-44
2024/01/08 06:04:24;;;;;;;24.40;9.80;;;;;;;-147.86;100.00;-17609.17;105493;1264;63950;-44
2024/01/08 06:06:52;;;;;;;28.00;10.20;;;;;;;-147.86;100.00;-17609.17;105473;1263;71913;-44
2024/01/08 06:09:20;;;;;;;16.90;7.50;;;;;;;-147.86;100.00;-17609.17;105505;1262;60835;-44
2024/01/08 06:11:48;;;;;;;17.50;7.70;;;;;;;-147.86;100.00;-17609.17;105461;1262;59933;-44
2024/01/08 06:14:15;;;;;;;16.80;6.00;;;;;;;-147.86;100.00;-17609.17;105495;1261;71932;-44
2024/01/08 06:16:43;;;;;;;18.90;6.60;;;;;;;-147.86;100.00;-17609.17;105443;1263;63983;-44
2024/01/08 06:19:11;;;;;;;23.20;8.40;;;;;;;-147.86;100.00;-17609.17;105442;1263;71687;-45
2024/01/08 06:21:39;;;;;;;14.90;6.00;;;;;;;-147.86;100.00;-17609.17;105431;1262;61174;-44
2024/01/08 06:24:06;;;;;;;18.10;7.70;;;;;;;-147.86;100.00;-17609.17;105454;1262;59693;-43
2024/01/08 06:26:34;;;;;;;19.80;7.90;;;;;;;-147.86;100.00;-17609.17;105435;1264;73028;-43
2024/01/08 06:29:02;;;;;;;18.40;7.10;;;;;;;-147.86;100.00;-17609.17;105473;1263;63936;-45
2024/01/08 06:31:30;;;;;;;15.00;6.60;;;;;;;-147.86;100.00;-17609.17;105430;1264;71632;-43
2024/01/08 06:34:00;;;;;;;22.40;8.30;;;;;;;-147.86;100.00;-17609.17;105428;1262;61639;-45
2024/01/08 06:36:28;;;;;;;12.00;5.80;;;;;;;-147.86;100.00;-17609.17;105439;1261;59556;-45
2024/01/08 06:38:55;;;;;;;19.70;8.00;;;;;;;-147.86;100.00;-17609.17;105466;1257;71758;-44
2024/01/08 06:41:24;;;;;;;22.80;8.20;;;;;;;-147.86;100.00;-17609.17;105450;1261;65252;-44
2024/01/08 06:43:52;;;;;;;18.30;8.20;;;;;;;-147.86;100.00;-17609.17;105602;1263;71375;-44
2024/01/08 06:46:20;;;;;;;11.10;5.90;;;;;;;-147.86;100.00;-17609.17;105579;1263;60376;-44
2024/01/08 06:48:48;;;;;;;9.80;4.20;;;;;;;-147.86;100.00;-17609.17;105536;1263;59650;-45
2024/01/08 06:51:16;;;;;;;12.80;6.20;;;;;;;-147.86;100.00;-17609.17;105518;1262;71880;-45
2024/01/08 06:53:44;;;;;;;20.20;6.90;;;;;;;-147.86;100.00;-17609.17;105524;1261;64052;-43
2024/01/08 06:56:11;;;;;;;10.30;6.00;;;;;;;-147.86;100.00;-17609.17;105516;1260;71549;-43
2024/01/08 06:58:39;;;;;;;19.00;7.40;;;;;;;-147.86;100.00;-17609.17;105510;1263;61701;-45
2024/01/08 07:01:07;;;;;;;13.50;6.40;;;;;;;-147.86;100.00;-17609.17;105541;1261;59831;-45
2024/01/08 07:03:35;;;;;;;16.70;7.30;;;;;;;-147.86;100.00;-17609.17;105525;1257;73187;-44
2024/01/08 07:06:03;;;;;;;17.80;8.20;;;;;;;-147.86;100.00;-17609.17;105554;1262;64108;-43
2024/01/08 07:08:31;;;;;;;17.50;6.00;;;;;;;-147.86;100.00;-17609.17;105540;1257;71332;-45
2024/01/08 07:10:59;;;;;;;13.50;6.30;;;;;;;-147.86;100.00;-17609.17;105497;1257;60681;-44
2024/01/08 07:13:27;;;;;;;13.40;7.00;;;;;;;-147.86;100.00;-17609.17;105563;1257;59999;-44
2024/01/08 07:15:57;;;;;;;13.30;6.00;;;;;;;-147.86;100.00;-17609.17;105582;1257;71925;-44
2024/01/08 07:18:25;;;;;;;13.30;6.20;;;;;;;-147.86;100.00;-17609.17;105584;1255;64288;-42
2024/01/08 07:20:53;;;;;;;17.00;5.90;;;;;;;-147.86;100.00;-17609.17;105622;1257;71378;-45
2024/01/08 07:23:23;;;;;;;15.90;6.30;;;;;;;-147.86;100.00;-17609.17;105560;1256;60683;-44
2024/01/08 07:25:52;;;;;;;13.30;5.70;;;;;;;-147.86;100.00;-17609.17;105589;1260;60085;-44
2024/01/08 07:28:20;;;;;;;18.80;6.20;;;;;;;-147.86;100.00;-17609.17;105622;1260;72090;-45
2024/01/08 07:30:48;;;;;;;11.10;5.70;;;;;;;-147.86;100.00;-17609.17;105579;1256;64342;-46
2024/01/08 07:33:16;;;;;;;13.30;5.50;;;;;;;-147.86;100.00;-17609.17;105552;1261;72682;-45
2024/01/08 07:35:44;;;;;;;10.30;5.20;;;;;;;-147.86;100.00;-17609.17;105634;1261;60377;-44
2024/01/08 07:38:12;;;;;;;12.10;5.00;;;;;;;-147.86;100.00;-17609.17;105614;1262;59622;-45
2024/01/08 07:40:39;;;;;;;10.90;4.00;;;;;;;-147.86;100.00;-17609.17;105585;1258;72704;-44
2024/01/08 07:43:07;;;;;;;11.90;5.40;;;;;;;-147.86;100.00;-17609.17;105576;1257;63954;-45
2024/01/08 07:45:35;;;;;;;11.70;5.10;;;;;;;-147.86;100.00;-17609.17;105548;1257;70511;-44
2024/01/08 07:48:03;;;;;;;9.40;5.30;;;;;;;-147.86;100.00;-17609.17;105646;1258;60407;-44
2024/01/08 07:50:31;;;;;;;12.00;5.20;;;;;;;-147.86;100.00;-17609.17;105642;1257;59975;-43
2024/01/08 07:52:59;;;;;;;9.90;4.40;;;;;;;-147.86;100.00;-17609.17;105603;1260;71779;-44
2024/01/08 07:55:27;;;;;;;10.60;5.20;;;;;;;-147.86;100.00;-17609.17;105575;1260;64265;-43
2024/01/08 07:57:55;;;;;;;12.60;5.60;;;;;;;-147.86;100.00;-17609.17;105585;1260;72295;-43
2024/01/08 08:00:25;;;;;;;10.40;5.30;;;;;;;-147.86;100.00;-17609.17;105644;1258;61644;-44
2024/01/08 08:02:54;;;;;;;9.20;4.30;;;;;;;-147.86;100.00;-17609.17;105589;1260;59650;-44
2024/01/08 08:05:22;;;;;;;11.90;5.30;;;;;;;-147.86;100.00;-17609.17;105596;1256;71786;-44
2024/01/08 08:07:52;;;;;;;13.40;5.70;;;;;;;-147.86;100.00;-17609.17;105592;1258;64051;-45
2024/01/08 08:10:20;;;;;;;11.30;5.20;;;;;;;-147.86;100.00;-17609.17;105660;1259;72416;-45
2024/01/08 08:12:51;;;;;;;11.10;5.50;;;;;;;-147.86;100.00;-17609.17;105579;1260;59766;-44
2024/01/08 08:15:20;;;;;;;10.90;5.60;;;;;;;-147.86;100.00;-17609.17;105661;1257;59784;-45
2024/01/08 08:17:49;;;;;;;10.50;5.40;;;;;;;-147.86;100.00;-17609.17;105473;1256;71818;-45
2024/01/08 08:20:20;;;;;;;7.60;4.00;;;;;;;-147.86;100.00;-17609.17;105684;1257;63951;-44
2024/01/08 08:22:49;;;;;;;11.20;4.50;;;;;;;-147.86;100.00;-17609.17;105583;1257;72600;-44
2024/01/08 08:25:19;;;;;;;12.40;4.90;;;;;;;-147.86;100.00;-17609.17;105622;1256;60429;-44
2024/01/08 08:27:48;;;;;;;12.50;5.20;;;;;;;-147.86;100.00;-17609.17;105575;1261;59986;-45
2024/01/08 08:30:19;;;;;;;11.70;5.60;;;;;;;-147.86;100.00;-17609.17;105587;1257;72129;-44
2024/01/08 08:32:47;;;;;;;21.20;5.20;;;;;;;-147.86;100.00;-17609.17;105627;1260;63946;-44
2024/01/08 08:35:16;;;;;;;11.40;5.70;;;;;;;-147.86;100.00;-17609.17;105605;1259;72453;-44
2024/01/08 08:37:44;;;;;;;10.90;5.80;;;;;;;-147.86;100.00;-17609.17;105608;1261;60751;-44
2024/01/08 08:40:21;;;;;;;8.90;4.70;;;;;;;-147.86;100.00;-17609.17;105567;1260;59808;-45
2024/01/08 08:42:50;;;;;;;10.50;3.70;;;;;;;-147.86;100.00;-17609.17;105618;1260;74055;-44
2024/01/08 08:45:18;;;;;;;9.80;4.40;;;;;;;-147.86;100.00;-17609.17;105640;1258;65098;-44
2024/01/08 08:47:46;;;;;;;13.00;5.40;;;;;;;-147.86;100.00;-17609.17;105596;1257;71386;-44
2024/01/08 08:50:15;;;;;;;13.70;5.10;;;;;;;-147.86;100.00;-17609.17;105612;1261;60416;-44
2024/01/08 08:52:46;;;;;;;6.40;4.10;;;;;;;-147.86;100.00;-17609.17;105599;1260;59560;-44
2024/01/08 08:55:14;;;;;;;12.80;5.90;;;;;;;-147.86;100.00;-17609.17;105555;1257;71849;-43
2024/01/08 08:57:43;;;;;;;9.10;5.30;;;;;;;-147.86;100.00;-17609.17;105584;1260;67472;-43
2024/01/08 09:00:11;;;;;;;9.00;4.20;;;;;;;-147.86;100.00;-17609.17;105615;1256;70502;-44
2024/01/08 09:02:44;;;;;;;8.70;4.30;;;;;;;-147.86;100.00;-17609.17;105610;1260;60781;-44
2024/01/08 09:05:13;;;;;;;7.60;4.00;;;;;;;-147.86;100.00;-17609.17;105605;1256;60150;-43
2024/01/08 09:07:52;;;;;;;8.70;4.30;;;;;;;-147.86;100.00;-17609.17;105578;1256;71788;-44
2024/01/08 09:10:20;;;;;;;11.10;3.80;;;;;;;-147.86;100.00;-17609.17;105617;1261;65157;-44
2024/01/08 09:12:48;;;;;;;10.90;4.90;;;;;;;-147.86;100.00;-17609.17;105562;1257;71966;-44
2024/01/08 09:15:16;;;;;;;10.70;4.50;;;;;;;-147.86;100.00;-17609.17;105603;1258;60710;-44
2024/01/08 09:17:43;;;;;;;5.90;3.30;;;;;;;-147.86;100.00;-17609.17;105591;1260;60426;-44
2024/01/08 09:20:11;;;;;;;11.50;4.90;;;;;;;-147.86;100.00;-17609.17;105637;1260;73623;-45
2024/01/08 09:22:40;;;;;;;7.40;4.30;;;;;;;-147.86;100.00;-17609.17;105580;1257;66026;-43
2024/01/08 09:25:08;;;;;;;6.30;3.80;;;;;;;-147.86;100.00;-17609.17;105631;1258;71352;-44
2024/01/08 09:27:38;;;;;;;7.60;4.20;;;;;;;-147.86;100.00;-17609.17;105573;1261;61854;-43
2024/01/08 09:30:06;;;;;;;14.00;5.40;;;;;;;-147.86;100.00;-17609.17;105617;1260;60347;-45
2024/01/08 09:32:34;;;;;;;10.30;4.10;;;;;;;-147.86;100.00;-17609.17;105598;1257;72546;-43
2024/01/08 09:35:02;;;;;;;8.70;4.00;;;;;;;-147.86;100.00;-17609.17;105659;1255;64651;-44
2024/01/08 09:37:30;;;;;;;7.90;4.40;;;;;;;-147.86;100.00;-17609.17;105639;1258;72305;-45
2024/01/08 09:39:58;;;;;;;16.40;5.10;;;;;;;-147.86;100.00;-17609.17;105590;1258;60553;-44
2024/01/08 09:42:28;;;;;;;8.20;4.30;;;;;;;-147.86;100.00;-17609.17;105566;1256;60584;-45
2024/01/08 09:44:55;;;;;;;6.80;4.20;;;;;;;-147.86;100.00;-17609.17;105630;1257;72646;-44
2024/01/08 09:47:23;;;;;;;9.30;4.90;;;;;;;-147.86;100.00;-17609.17;105593;1260;63944;-44
2024/01/08 09:49:51;;;;;;;7.20;4.70;;;;;;;-147.86;100.00;-17609.17;105545;1257;73179;-45
2024/01/08 09:52:19;;;;;;;11.30;4.80;;;;;;;-147.86;100.00;-17609.17;105530;1263;60613;-44
2024/01/08 09:54:50;;;;;;;9.20;4.40;;;;;;;-147.86;100.00;-17609.17;105647;1257;60640;-44
2024/01/08 09:57:20;;;;;;;11.20;4.30;;;;;;;-147.86;100.00;-17609.17;105604;1257;72125;-45
2024/01/08 09:59:48;;;;;;;9.00;4.60;;;;;;;-147.86;100.00;-17609.17;105630;1259;65551;-44
2024/01/08 10:02:16;;;;;;;11.30;4.40;;;;;;;-147.86;100.00;-17609.17;105611;1258;72951;-44
2024/01/08 10:04:44;;;;;;;9.90;4.70;;;;;;;-147.86;100.00;-17609.17;105616;1260;60522;-44
2024/01/08 10:07:13;;;;;;;15.80;5.00;;;;;;;-147.86;100.00;-17609.17;105618;1256;62428;-44
2024/01/08 10:09:41;;;;;;;9.20;4.80;;;;;;;-147.86;100.00;-17609.17;105563;1255;72557;-45
2024/01/08 10:12:12;;;;;;;32.30;4.80;;;;;;;-147.86;100.00;-17609.17;105575;1260;65173;-44
2024/01/08 10:14:40;;;;;;;7.70;4.60;;;;;;;-147.86;100.00;-17609.17;105589;1257;73710;-43
2024/01/08 10:18:56;;;;;;;13.30;5.50;;;;;;;-147.86;100.00;-17609.17;102821;1295;601037;-45
2024/01/08 10:21:25;;;;;;;6.80;3.90;;;;;;;-147.86;100.00;-17609.17;105157;1270;59669;-44
2024/01/08 10:23:53;;;;;;;10.30;4.90;;;;;;;-147.86;100.00;-17609.17;105174;1270;59334;-44
2024/01/08 10:26:22;;;;;;;10.00;3.90;;;;;;;-147.86;100.00;-17609.17;104844;1264;72060;-44
2024/01/08 10:28:50;;;;;;;12.60;5.00;;;;;;;-147.86;100.00;-17609.17;104888;1264;63914;-45
2024/01/08 10:31:17;;;;;;;6.70;4.30;;;;;;;-147.86;100.00;-17609.17;105103;1264;72916;-44
2024/01/08 10:33:45;;;;;;;9.50;4.50;;;;;;;-147.86;100.00;-17609.17;104924;1267;365514;-44
2024/01/08 10:36:13;;;;;;;5.90;4.10;;;;;;;-147.86;100.00;-17609.17;105196;1267;61341;-45
2024/01/08 10:38:41;;;;;;;10.60;4.90;;;;;;;-147.86;100.00;-17609.17;105097;1261;70757;-44
2024/01/08 10:41:10;;;;;;;11.70;5.10;;;;;;;-147.86;100.00;-17609.17;105228;1261;65119;-45
2024/01/08 10:43:38;;;;;;;16.40;5.50;;;;;;;-147.86;100.00;-17609.17;105186;1268;71835;-44
2024/01/08 10:46:07;;;;;;;18.20;6.00;;;;;;;-147.86;100.00;-17609.17;105241;1269;63191;-44
2024/01/08 10:48:40;;;;;;;9.70;5.20;;;;;;;-147.86;100.00;-17609.17;105147;1260;59898;-44
2024/01/08 10:51:08;;;;;;;14.80;6.90;;;;;;;-147.86;100.00;-17609.17;105234;1266;73115;-43
2024/01/08 10:53:41;;;;;;;9.20;4.90;;;;;;;-147.86;100.00;-17609.17;105281;1266;65918;-44
2024/01/08 10:56:16;;;;;;;14.00;5.40;;;;;;;-147.86;100.00;-17609.17;105660;1259;72671;-44
2024/01/08 10:58:58;;;;;;;11.00;5.20;;;;;;;-147.86;100.00;-17609.17;105704;1254;63136;-44
2024/01/08 11:01:27;;;;;;;20.00;5.90;;;;;;;-147.86;100.00;-17609.17;105626;1254;62102;-45
2024/01/08 11:03:59;;;;;;;10.40;5.40;;;;;;;-147.86;100.00;-17609.17;105666;1254;74108;-44
2024/01/08 11:06:28;;;;;;;13.10;5.10;;;;;;;-147.86;100.00;-17609.17;105682;1254;66399;-44
2024/01/08 11:08:59;;;;;;;10.70;5.40;;;;;;;-147.86;100.00;-17609.17;105686;1255;72149;-44